createdAt,value
2022-12-18T00:00:36.082Z,45.26
2022-12-18T00:01:36.057Z,46.65
2022-12-18T00:02:36.155Z,44.87
2022-12-18T00:03:36.159Z,47.74
2022-12-18T00:04:35.998Z,45.82
2022-12-18T00:05:36.134Z,48.42
2022-12-18T00:06:36.000Z,43.71
2022-12-18T00:07:35.997Z,43.96
2022-12-18T00:08:35.964Z,44.98
2022-12-18T00:09:39.487Z,43.58
2022-12-18T00:10:35.933Z,42.88
2022-12-18T00:11:35.939Z,42.95
2022-12-18T00:12:35.972Z,44.04
2022-12-18T00:13:36.406Z,43.93
2022-12-18T00:14:35.896Z,46.47
2022-12-18T00:15:35.904Z,45.81
2022-12-18T00:16:35.956Z,45.86
2022-12-18T00:17:35.880Z,45.87
2022-12-18T00:18:36.232Z,44.91
2022-12-18T00:19:35.869Z,44.06
2022-12-18T00:20:35.868Z,46.18
2022-12-18T00:21:35.835Z,45.85
2022-12-18T00:22:35.842Z,46.96
2022-12-18T00:23:36.152Z,44.59
2022-12-18T00:24:35.817Z,45.98
2022-12-18T00:25:35.806Z,47.59
2022-12-18T00:26:35.820Z,43.84
2022-12-18T00:27:35.776Z,44.78
2022-12-18T00:28:35.761Z,45.05
2022-12-18T00:29:35.746Z,43.24
2022-12-18T00:30:35.765Z,46.09
2022-12-18T00:31:35.844Z,45.75
2022-12-18T00:32:35.721Z,45.10
2022-12-18T00:33:35.977Z,42.22
2022-12-18T00:34:35.696Z,43.96
2022-12-18T00:35:35.694Z,43.38
2022-12-18T00:36:35.719Z,47.59
2022-12-18T00:37:35.676Z,44.55
2022-12-18T00:38:35.652Z,44.84
2022-12-18T00:39:35.667Z,45.66
2022-12-18T00:40:35.662Z,42.24
2022-12-18T00:41:35.638Z,44.88
2022-12-18T00:42:35.641Z,43.56
2022-12-18T00:43:35.920Z,45.10
2022-12-18T00:44:35.590Z,44.67
2022-12-18T00:45:35.656Z,44.64
2022-12-18T00:46:35.603Z,43.58
2022-12-18T00:47:35.579Z,45.50
2022-12-18T00:48:35.556Z,47.68
2022-12-18T00:49:35.545Z,44.13
2022-12-18T00:50:35.525Z,42.91
2022-12-18T00:51:35.538Z,44.44
2022-12-18T00:52:35.536Z,45.89
2022-12-18T00:53:35.956Z,44.39
2022-12-18T00:54:35.500Z,44.17
2022-12-18T00:55:35.513Z,44.90
2022-12-18T00:56:35.508Z,45.54
2022-12-18T00:57:35.467Z,49.23
2022-12-18T00:58:35.498Z,42.82
2022-12-18T00:59:35.468Z,43.62
2022-12-18T01:00:35.488Z,43.43
2022-12-18T01:01:35.543Z,43.56
2022-12-18T01:02:35.589Z,43.26
2022-12-18T01:03:35.593Z,43.44
2022-12-18T01:04:35.383Z,42.31
2022-12-18T01:05:35.451Z,42.93
2022-12-18T01:07:07.312Z,42.88
2022-12-18T01:07:35.356Z,46.78
2022-12-18T01:08:35.350Z,48.57
2022-12-18T01:09:35.344Z,46.76
2022-12-18T01:10:35.370Z,45.54
2022-12-18T01:11:35.345Z,47.20
2022-12-18T01:12:35.346Z,45.91
2022-12-18T01:13:35.524Z,44.22
2022-12-18T01:14:35.284Z,43.30
2022-12-18T01:15:35.306Z,43.24
2022-12-18T01:16:35.323Z,45.46
2022-12-18T01:17:35.323Z,43.47
2022-12-18T01:18:35.271Z,44.25
2022-12-18T01:19:35.288Z,43.94
2022-12-18T01:20:35.260Z,42.93
2022-12-18T01:21:35.244Z,42.17
2022-12-18T01:22:36.239Z,43.61
2022-12-18T01:23:35.443Z,43.39
2022-12-18T01:24:35.198Z,45.99
2022-12-18T01:25:35.201Z,43.95
2022-12-18T01:26:35.181Z,43.16
2022-12-18T01:27:35.185Z,42.46
2022-12-18T01:28:35.160Z,45.57
2022-12-18T01:29:35.163Z,42.87
2022-12-18T01:30:35.167Z,42.42
2022-12-18T01:31:35.193Z,48.31
2022-12-18T01:32:35.127Z,43.39
2022-12-18T01:33:35.371Z,43.54
2022-12-18T01:34:35.094Z,44.55
2022-12-18T01:35:35.121Z,42.69
2022-12-18T01:36:35.162Z,45.57
2022-12-18T01:37:35.071Z,42.85
2022-12-18T01:38:35.055Z,44.18
2022-12-18T01:39:35.041Z,43.20
2022-12-18T01:40:35.059Z,44.26
2022-12-18T01:41:35.079Z,45.59
2022-12-18T01:42:35.010Z,43.58
2022-12-18T01:43:35.206Z,43.92
2022-12-18T01:44:35.016Z,45.54
2022-12-18T01:45:35.069Z,48.14
2022-12-18T01:46:35.001Z,43.24
2022-12-18T01:47:34.959Z,43.40
2022-12-18T01:48:34.953Z,43.76
2022-12-18T01:49:34.954Z,43.99
2022-12-18T01:50:34.969Z,48.06
2022-12-18T01:51:34.936Z,46.61
2022-12-18T01:52:34.902Z,43.21
2022-12-18T01:53:35.098Z,44.98
2022-12-18T01:54:34.902Z,45.35
2022-12-18T01:55:34.893Z,43.36
2022-12-18T01:56:34.878Z,43.69
2022-12-18T01:57:34.862Z,44.29
2022-12-18T01:58:34.872Z,42.19
2022-12-18T01:59:34.853Z,44.13
2022-12-18T02:00:34.837Z,42.93
2022-12-18T02:01:35.072Z,42.70
2022-12-18T02:02:34.899Z,42.74
2022-12-18T02:03:34.843Z,45.47
2022-12-18T02:04:34.797Z,43.30
2022-12-18T02:05:34.795Z,45.24
2022-12-18T02:06:34.778Z,46.56
2022-12-18T02:07:34.788Z,47.94
2022-12-18T02:08:34.782Z,43.71
2022-12-18T02:09:34.796Z,46.23
2022-12-18T02:10:34.742Z,47.44
2022-12-18T02:11:34.753Z,42.09
2022-12-18T02:12:34.800Z,42.06
2022-12-18T02:13:34.878Z,46.45
2022-12-18T02:14:34.707Z,42.13
2022-12-18T02:15:34.706Z,42.52
2022-12-18T02:16:34.796Z,42.38
2022-12-18T02:17:34.664Z,42.90
2022-12-18T02:18:34.640Z,42.37
2022-12-18T02:19:34.652Z,48.37
2022-12-18T02:20:34.647Z,49.06
2022-12-18T02:21:34.629Z,45.12
2022-12-18T02:22:34.628Z,55.50
2022-12-18T02:23:34.620Z,43.32
2022-12-18T02:24:34.582Z,42.42
2022-12-18T02:25:34.606Z,42.48
2022-12-18T02:26:34.567Z,47.08
2022-12-18T02:27:34.557Z,44.02
2022-12-18T02:28:34.647Z,45.52
2022-12-18T02:29:35.553Z,43.16
2022-12-18T02:30:34.592Z,46.43
2022-12-18T02:31:34.538Z,47.44
2022-12-18T02:32:34.527Z,43.62
2022-12-18T02:33:34.518Z,44.76
2022-12-18T02:34:34.492Z,47.24
2022-12-18T02:35:34.490Z,44.82
2022-12-18T02:36:34.499Z,43.30
2022-12-18T02:37:34.454Z,44.13
2022-12-18T02:38:34.456Z,43.08
2022-12-18T02:39:34.450Z,42.68
2022-12-18T02:40:34.429Z,46.13
2022-12-18T02:41:34.446Z,43.97
2022-12-18T02:42:34.415Z,43.03
2022-12-18T02:43:34.396Z,45.52
2022-12-18T02:44:34.469Z,44.53
2022-12-18T02:45:34.412Z,42.44
2022-12-18T02:46:34.361Z,43.83
2022-12-18T02:47:34.381Z,42.32
2022-12-18T02:48:34.363Z,42.49
2022-12-18T02:49:34.331Z,44.20
2022-12-18T02:50:34.371Z,44.64
2022-12-18T02:51:34.332Z,44.48
2022-12-18T02:52:34.307Z,48.98
2022-12-18T02:53:34.302Z,45.98
2022-12-18T02:54:34.284Z,42.43
2022-12-18T02:55:34.310Z,43.96
2022-12-18T02:56:34.288Z,42.40
2022-12-18T02:57:34.301Z,42.98
2022-12-18T02:58:34.277Z,42.75
2022-12-18T02:59:34.261Z,42.90
2022-12-18T03:00:34.314Z,42.04
2022-12-18T03:01:34.349Z,42.16
2022-12-18T03:02:34.281Z,43.53
2022-12-18T03:03:34.236Z,44.50
2022-12-18T03:04:34.199Z,45.10
2022-12-18T03:05:34.228Z,43.08
2022-12-18T03:06:34.163Z,42.72
2022-12-18T03:07:34.172Z,43.60
2022-12-18T03:08:34.187Z,42.86
2022-12-18T03:09:34.148Z,42.82
2022-12-18T03:10:34.159Z,46.22
2022-12-18T03:11:34.154Z,42.21
2022-12-18T03:12:34.112Z,41.89
2022-12-18T03:13:34.111Z,42.73
2022-12-18T03:14:34.091Z,43.11
2022-12-18T03:15:34.086Z,45.84
2022-12-18T03:16:34.195Z,42.73
2022-12-18T03:17:34.079Z,43.62
2022-12-18T03:18:34.048Z,44.54
2022-12-18T03:19:34.147Z,44.07
2022-12-18T03:20:34.053Z,44.79
2022-12-18T03:21:34.061Z,42.91
2022-12-18T03:22:34.022Z,42.74
2022-12-18T03:23:34.000Z,46.21
2022-12-18T03:24:34.036Z,42.69
2022-12-18T03:25:33.972Z,42.28
2022-12-18T03:26:33.977Z,43.12
2022-12-18T03:27:33.993Z,42.36
2022-12-18T03:28:33.945Z,42.18
2022-12-18T03:29:34.069Z,42.79
2022-12-18T03:30:33.971Z,42.85
2022-12-18T03:31:33.945Z,42.83
2022-12-18T03:32:34.011Z,43.46
2022-12-18T03:33:33.943Z,44.71
2022-12-18T03:34:33.921Z,44.19
2022-12-18T03:35:33.898Z,44.09
2022-12-18T03:36:33.914Z,45.33
2022-12-18T03:37:33.876Z,42.97
2022-12-18T03:38:33.847Z,42.17
2022-12-18T03:39:33.887Z,42.11
2022-12-18T03:40:33.847Z,43.06
2022-12-18T03:41:33.828Z,43.83
2022-12-18T03:42:33.853Z,42.42
2022-12-18T03:43:33.836Z,45.07
2022-12-18T03:44:33.806Z,43.14
2022-12-18T03:45:33.823Z,44.03
2022-12-18T03:46:34.808Z,42.92
2022-12-18T03:47:33.781Z,43.12
2022-12-18T03:48:33.921Z,42.15
2022-12-18T03:49:33.791Z,44.03
2022-12-18T03:50:33.731Z,46.55
2022-12-18T03:51:33.811Z,44.37
2022-12-18T03:52:33.713Z,46.01
2022-12-18T03:53:33.733Z,47.90
2022-12-18T03:54:33.709Z,49.23
2022-12-18T03:55:33.691Z,45.17
2022-12-18T03:56:33.693Z,49.42
2022-12-18T03:57:33.667Z,43.65
2022-12-18T03:58:33.664Z,42.65
2022-12-18T03:59:33.660Z,44.21
2022-12-18T04:00:33.655Z,43.57
2022-12-18T04:01:33.682Z,42.99
2022-12-18T04:02:33.791Z,47.72
2022-12-18T04:03:33.739Z,44.75
2022-12-18T04:04:33.687Z,46.69
2022-12-18T04:05:33.607Z,43.29
2022-12-18T04:06:33.576Z,43.96
2022-12-18T04:07:33.556Z,42.48
2022-12-18T04:08:33.558Z,44.37
2022-12-18T04:09:33.552Z,43.27
2022-12-18T04:10:33.541Z,43.86
2022-12-18T04:11:33.538Z,42.38
2022-12-18T04:12:33.502Z,42.98
2022-12-18T04:13:33.508Z,43.15
2022-12-18T04:14:33.539Z,42.85
2022-12-18T04:15:33.568Z,43.37
2022-12-18T04:16:33.479Z,44.35
2022-12-18T04:17:33.467Z,45.70
2022-12-18T04:18:33.483Z,52.55
2022-12-18T04:19:33.444Z,48.73
2022-12-18T04:20:33.543Z,52.47
2022-12-18T04:21:33.448Z,47.58
2022-12-18T04:22:33.413Z,45.00
2022-12-18T04:23:33.486Z,43.54
2022-12-18T04:24:33.402Z,45.15
2022-12-18T04:25:33.395Z,48.43
2022-12-18T04:26:33.374Z,43.35
2022-12-18T04:27:34.390Z,44.22
2022-12-18T04:28:33.359Z,42.96
2022-12-18T04:29:33.337Z,43.18
2022-12-18T04:30:33.375Z,42.72
2022-12-18T04:31:33.420Z,44.56
2022-12-18T04:32:33.349Z,43.24
2022-12-18T04:33:33.292Z,43.73
2022-12-18T04:34:34.302Z,45.29
2022-12-18T04:35:33.301Z,42.51
2022-12-18T04:36:33.366Z,44.34
2022-12-18T04:37:33.280Z,48.30
2022-12-18T04:38:33.302Z,43.93
2022-12-18T04:39:33.252Z,46.33
2022-12-18T04:40:33.301Z,45.32
2022-12-18T04:41:33.263Z,44.78
2022-12-18T04:42:33.210Z,49.63
2022-12-18T04:43:33.210Z,44.72
2022-12-18T04:44:33.206Z,44.69
2022-12-18T04:45:33.228Z,45.25
2022-12-18T04:46:33.253Z,44.66
2022-12-18T04:47:33.190Z,44.97
2022-12-18T04:48:33.202Z,44.78
2022-12-18T04:49:33.152Z,44.34
2022-12-18T04:50:33.190Z,45.45
2022-12-18T04:51:33.146Z,46.22
2022-12-18T04:52:33.203Z,45.82
2022-12-18T04:53:33.160Z,45.57
2022-12-18T04:54:33.114Z,44.36
2022-12-18T04:55:33.122Z,45.18
2022-12-18T04:56:33.070Z,45.66
2022-12-18T04:57:33.075Z,44.81
2022-12-18T04:58:33.077Z,44.15
2022-12-18T04:59:33.052Z,45.46
2022-12-18T05:00:33.062Z,45.39
2022-12-18T05:01:35.107Z,45.79
2022-12-18T05:02:34.159Z,45.28
2022-12-18T05:03:33.050Z,44.38
2022-12-18T05:04:32.997Z,45.08
2022-12-18T05:05:33.007Z,45.99
2022-12-18T05:06:32.980Z,44.88
2022-12-18T05:07:32.972Z,44.46
2022-12-18T05:08:33.036Z,45.51
2022-12-18T05:09:32.959Z,45.75
2022-12-18T05:10:38.020Z,45.98
2022-12-18T05:11:34.944Z,44.11
2022-12-18T05:12:32.913Z,44.16
2022-12-18T05:13:32.938Z,45.21
2022-12-18T05:14:32.906Z,45.71
2022-12-18T05:15:32.899Z,45.87
2022-12-18T05:16:32.958Z,50.30
2022-12-18T05:17:32.867Z,49.61
2022-12-18T05:18:32.852Z,47.37
2022-12-18T05:19:32.852Z,45.09
2022-12-18T05:20:32.874Z,44.20
2022-12-18T05:21:32.842Z,48.43
2022-12-18T05:22:32.826Z,44.21
2022-12-18T05:23:32.808Z,46.83
2022-12-18T05:24:32.901Z,45.21
2022-12-18T05:25:32.774Z,44.34
2022-12-18T05:26:32.815Z,45.37
2022-12-18T05:27:32.782Z,45.08
2022-12-18T05:28:32.748Z,53.59
2022-12-18T05:29:32.765Z,45.96
2022-12-18T05:30:32.737Z,46.94
2022-12-18T05:31:38.919Z,45.08
2022-12-18T05:32:34.770Z,44.49
2022-12-18T05:33:32.736Z,46.35
2022-12-18T05:34:32.683Z,45.92
2022-12-18T05:35:32.685Z,45.13
2022-12-18T05:36:32.691Z,46.98
2022-12-18T05:37:33.604Z,46.14
2022-12-18T05:38:32.665Z,45.84
2022-12-18T05:39:32.637Z,45.82
2022-12-18T05:40:32.711Z,45.24
2022-12-18T05:41:32.663Z,47.34
2022-12-18T05:42:32.625Z,48.25
2022-12-18T05:43:32.608Z,49.50
2022-12-18T05:44:32.602Z,53.85
2022-12-18T05:45:32.622Z,48.15
2022-12-18T05:46:32.637Z,46.20
2022-12-18T05:47:32.584Z,44.89
2022-12-18T05:48:32.561Z,46.84
2022-12-18T05:49:32.552Z,48.82
2022-12-18T05:50:32.533Z,45.47
2022-12-18T05:51:32.561Z,45.16
2022-12-18T05:52:32.503Z,44.11
2022-12-18T05:53:32.513Z,44.74
2022-12-18T05:54:32.526Z,48.34
2022-12-18T05:55:32.481Z,45.22
2022-12-18T05:56:32.558Z,47.39
2022-12-18T05:57:32.497Z,44.14
2022-12-18T05:58:32.452Z,45.66
2022-12-18T05:59:32.473Z,46.13
2022-12-18T06:00:32.446Z,44.96
2022-12-18T06:01:32.484Z,47.95
2022-12-18T06:02:32.466Z,46.02
2022-12-18T06:03:34.172Z,49.18
2022-12-18T06:04:33.402Z,47.18
2022-12-18T06:05:32.399Z,46.41
2022-12-18T06:06:32.380Z,47.17
2022-12-18T06:07:32.374Z,46.30
2022-12-18T06:08:32.382Z,50.34
2022-12-18T06:09:32.345Z,47.98
2022-12-18T06:10:32.342Z,45.66
2022-12-18T06:11:32.337Z,47.13
2022-12-18T06:12:32.421Z,46.71
2022-12-18T06:13:32.328Z,44.95
2022-12-18T06:14:32.304Z,46.03
2022-12-18T06:15:32.314Z,50.46
2022-12-18T06:16:32.363Z,47.24
2022-12-18T06:17:32.277Z,49.18
2022-12-18T06:18:32.280Z,45.14
2022-12-18T06:19:32.258Z,48.51
2022-12-18T06:20:33.841Z,49.00
2022-12-18T06:21:33.234Z,49.34
2022-12-18T06:22:32.263Z,44.77
2022-12-18T06:23:32.204Z,45.64
2022-12-18T06:24:32.257Z,44.45
2022-12-18T06:25:32.204Z,47.83
2022-12-18T06:26:32.217Z,46.76
2022-12-18T06:27:32.186Z,46.34
2022-12-18T06:28:32.244Z,45.74
2022-12-18T06:29:32.143Z,50.99
2022-12-18T06:30:32.160Z,46.30
2022-12-18T06:31:32.185Z,49.54
2022-12-18T06:32:32.131Z,49.62
2022-12-18T06:33:32.123Z,49.41
2022-12-18T06:34:32.103Z,48.43
2022-12-18T06:35:32.088Z,47.20
2022-12-18T06:36:32.102Z,45.20
2022-12-18T06:37:32.091Z,48.95
2022-12-18T06:38:32.055Z,47.83
2022-12-18T06:39:32.062Z,48.41
2022-12-18T06:40:32.059Z,49.58
2022-12-18T06:41:32.038Z,48.18
2022-12-18T06:42:32.056Z,49.99
2022-12-18T06:43:32.013Z,50.25
2022-12-18T06:44:32.099Z,46.91
2022-12-18T06:45:32.041Z,46.37
2022-12-18T06:46:31.976Z,45.21
2022-12-18T06:47:31.987Z,50.56
2022-12-18T06:48:31.973Z,46.92
2022-12-18T06:49:31.955Z,49.10
2022-12-18T06:50:31.970Z,47.17
2022-12-18T06:51:31.935Z,48.64
2022-12-18T06:52:31.924Z,45.54
2022-12-18T06:53:31.969Z,45.85
2022-12-18T06:54:31.942Z,45.36
2022-12-18T06:55:31.910Z,46.69
2022-12-18T06:56:31.888Z,46.70
2022-12-18T06:57:31.928Z,49.30
2022-12-18T06:58:31.892Z,44.60
2022-12-18T06:59:31.851Z,44.19
2022-12-18T07:00:31.926Z,44.46
2022-12-18T07:01:31.999Z,46.21
2022-12-18T07:02:31.925Z,48.21
2022-12-18T07:03:31.862Z,48.99
2022-12-18T07:04:31.851Z,50.64
2022-12-18T07:05:31.830Z,48.23
2022-12-18T07:06:31.806Z,47.00
2022-12-18T07:08:03.700Z,46.91
2022-12-18T07:08:31.795Z,51.19
2022-12-18T07:09:31.755Z,49.89
2022-12-18T07:10:31.777Z,45.09
2022-12-18T07:11:31.768Z,47.26
2022-12-18T07:12:31.758Z,45.61
2022-12-18T07:13:31.739Z,45.07
2022-12-18T07:14:31.727Z,47.39
2022-12-18T07:15:31.722Z,49.56
2022-12-18T07:16:31.870Z,49.84
2022-12-18T07:17:31.662Z,45.11
2022-12-18T07:18:31.667Z,48.73
2022-12-18T07:19:31.688Z,49.45
2022-12-18T07:20:31.634Z,44.50
2022-12-18T07:21:31.677Z,46.01
2022-12-18T07:22:31.683Z,46.65
2022-12-18T07:23:31.610Z,45.64
2022-12-18T07:24:31.627Z,48.11
2022-12-18T07:25:31.633Z,46.83
2022-12-18T07:26:31.609Z,48.28
2022-12-18T07:27:31.565Z,49.81
2022-12-18T07:28:31.590Z,50.02
2022-12-18T07:29:31.541Z,49.33
2022-12-18T07:30:31.561Z,49.91
2022-12-18T07:31:31.628Z,48.58
2022-12-18T07:32:31.626Z,48.11
2022-12-18T07:33:31.507Z,50.97
2022-12-18T07:34:31.544Z,51.78
2022-12-18T07:35:31.527Z,45.87
2022-12-18T07:36:31.486Z,46.40
2022-12-18T07:37:31.508Z,45.81
2022-12-18T07:38:31.496Z,49.73
2022-12-18T07:39:31.491Z,50.74
2022-12-18T07:40:31.503Z,51.41
2022-12-18T07:41:31.478Z,53.62
2022-12-18T07:42:31.444Z,52.66
2022-12-18T07:43:31.434Z,47.50
2022-12-18T07:44:31.415Z,48.43
2022-12-18T07:45:31.473Z,46.12
2022-12-18T07:46:31.412Z,44.41
2022-12-18T07:47:31.434Z,49.11
2022-12-18T07:48:31.476Z,47.81
2022-12-18T07:49:31.424Z,50.48
2022-12-18T07:50:31.372Z,44.96
2022-12-18T07:51:31.338Z,52.62
2022-12-18T07:52:31.379Z,50.08
2022-12-18T07:53:31.382Z,51.44
2022-12-18T07:54:31.325Z,47.23
2022-12-18T07:55:47.941Z,46.25
2022-12-18T07:56:33.322Z,46.42
2022-12-18T07:57:49.975Z,51.27
2022-12-18T07:58:33.278Z,48.51
2022-12-18T07:59:31.305Z,50.65
2022-12-18T08:00:31.248Z,48.20
2022-12-18T08:01:31.404Z,50.01
2022-12-18T08:02:31.338Z,50.85
2022-12-18T08:03:31.220Z,47.79
2022-12-18T08:04:31.304Z,49.44
2022-12-18T08:05:31.251Z,51.34
2022-12-18T08:06:31.228Z,48.22
2022-12-18T08:07:31.181Z,48.96
2022-12-18T08:08:31.237Z,49.21
2022-12-18T08:09:31.164Z,51.51
2022-12-18T08:10:31.172Z,49.98
2022-12-18T08:11:31.182Z,46.65
2022-12-18T08:12:31.148Z,52.31
2022-12-18T08:13:31.133Z,52.77
2022-12-18T08:14:31.138Z,51.01
2022-12-18T08:15:31.139Z,47.26
2022-12-18T08:16:31.136Z,49.21
2022-12-18T08:17:31.084Z,48.70
2022-12-18T08:18:31.125Z,48.22
2022-12-18T08:19:31.107Z,53.43
2022-12-18T08:20:31.162Z,47.63
2022-12-18T08:21:31.044Z,50.97
2022-12-18T08:22:31.049Z,49.92
2022-12-18T08:23:31.064Z,48.67
2022-12-18T08:24:32.008Z,46.79
2022-12-18T08:25:31.032Z,52.78
2022-12-18T08:26:31.016Z,48.85
2022-12-18T08:27:30.997Z,51.30
2022-12-18T08:28:31.010Z,52.41
2022-12-18T08:29:31.013Z,48.88
2022-12-18T08:30:31.008Z,46.05
2022-12-18T08:31:31.037Z,46.76
2022-12-18T08:32:30.964Z,50.43
2022-12-18T08:33:30.939Z,48.39
2022-12-18T08:34:30.932Z,49.28
2022-12-18T08:35:36.389Z,51.70
2022-12-18T08:36:32.998Z,46.16
2022-12-18T08:37:30.897Z,48.48
2022-12-18T08:38:30.895Z,50.70
2022-12-18T08:39:30.900Z,50.17
2022-12-18T08:40:30.859Z,51.86
2022-12-18T08:41:30.879Z,52.27
2022-12-18T08:42:30.847Z,49.55
2022-12-18T08:43:30.825Z,50.56
2022-12-18T08:44:30.848Z,48.02
2022-12-18T08:45:30.836Z,51.06
2022-12-18T08:46:30.861Z,55.86
2022-12-18T08:47:30.771Z,54.92
2022-12-18T08:48:30.800Z,55.40
2022-12-18T08:49:30.799Z,50.95
2022-12-18T08:50:30.784Z,52.59
2022-12-18T08:51:30.740Z,48.93
2022-12-18T08:52:30.830Z,51.53
2022-12-18T08:53:36.593Z,53.10
2022-12-18T08:54:32.730Z,51.45
2022-12-18T08:55:30.708Z,50.63
2022-12-18T08:56:30.726Z,52.87
2022-12-18T08:57:30.680Z,55.68
2022-12-18T08:58:30.682Z,52.06
2022-12-18T08:59:30.701Z,53.32
2022-12-18T09:00:30.668Z,52.96
2022-12-18T09:01:30.791Z,53.10
2022-12-18T09:02:30.820Z,49.56
2022-12-18T09:03:30.793Z,52.77
2022-12-18T09:04:30.618Z,53.25
2022-12-18T09:05:30.624Z,52.53
2022-12-18T09:06:31.621Z,51.34
2022-12-18T09:07:30.690Z,54.42
2022-12-18T09:08:30.663Z,55.79
2022-12-18T09:09:30.587Z,52.45
2022-12-18T09:10:30.566Z,50.44
2022-12-18T09:11:30.539Z,54.46
2022-12-18T09:12:31.563Z,51.89
2022-12-18T09:13:30.513Z,52.09
2022-12-18T09:14:30.506Z,52.87
2022-12-18T09:15:30.535Z,52.98
2022-12-18T09:16:32.617Z,56.56
2022-12-18T09:17:31.554Z,49.32
2022-12-18T09:18:30.505Z,53.64
2022-12-18T09:19:30.482Z,51.08
2022-12-18T09:20:30.421Z,50.66
2022-12-18T09:21:30.475Z,52.08
2022-12-18T09:22:30.445Z,51.26
2022-12-18T09:23:30.433Z,51.70
2022-12-18T09:24:36.387Z,52.10
2022-12-18T09:25:31.517Z,54.91
2022-12-18T09:26:30.415Z,58.27
2022-12-18T09:27:30.390Z,50.73
2022-12-18T09:28:30.563Z,52.41
2022-12-18T09:29:30.360Z,51.25
2022-12-18T09:30:30.418Z,51.87
2022-12-18T09:31:30.363Z,50.98
2022-12-18T09:32:30.353Z,54.83
2022-12-18T09:33:30.325Z,50.61
2022-12-18T09:34:30.318Z,49.65
2022-12-18T09:35:30.327Z,52.24
2022-12-18T09:36:30.296Z,53.40
2022-12-18T09:37:30.350Z,54.08
2022-12-18T09:38:30.278Z,54.54
2022-12-18T09:39:30.252Z,53.04
2022-12-18T09:40:30.262Z,51.80
2022-12-18T09:41:30.356Z,53.28
2022-12-18T09:42:30.298Z,52.66
2022-12-18T09:43:30.199Z,53.59
2022-12-18T09:44:30.272Z,51.24
2022-12-18T09:45:30.636Z,53.59
2022-12-18T09:46:30.234Z,52.01
2022-12-18T09:47:30.209Z,54.82
2022-12-18T09:48:30.185Z,52.88
2022-12-18T09:49:30.156Z,54.25
2022-12-18T09:50:30.137Z,50.82
2022-12-18T09:51:30.210Z,56.85
2022-12-18T09:52:30.131Z,52.27
2022-12-18T09:53:30.113Z,55.62
2022-12-18T09:54:30.153Z,51.15
2022-12-18T09:55:36.599Z,52.42
2022-12-18T09:56:32.183Z,51.20
2022-12-18T09:57:30.059Z,52.72
2022-12-18T09:58:30.110Z,53.38
2022-12-18T09:59:30.087Z,52.53
2022-12-18T10:00:30.033Z,50.35
2022-12-18T10:01:38.782Z,51.40
2022-12-18T10:02:32.193Z,51.50
2022-12-18T10:03:30.019Z,50.20
2022-12-18T10:04:30.044Z,53.71
2022-12-18T10:05:30.034Z,50.19
2022-12-18T10:06:30.015Z,53.99
2022-12-18T10:07:29.963Z,53.25
2022-12-18T10:08:30.023Z,51.25
2022-12-18T10:09:29.945Z,49.98
2022-12-18T10:10:29.943Z,53.74
2022-12-18T10:11:29.940Z,54.84
2022-12-18T10:12:30.079Z,53.73
2022-12-18T10:13:29.894Z,52.64
2022-12-18T10:14:29.919Z,53.03
2022-12-18T10:15:29.982Z,57.47
2022-12-18T10:16:29.877Z,49.90
2022-12-18T10:17:29.889Z,52.87
2022-12-18T10:18:29.894Z,54.23
2022-12-18T10:19:29.840Z,58.03
2022-12-18T10:20:29.829Z,51.18
2022-12-18T10:21:29.843Z,54.17
2022-12-18T10:22:29.843Z,52.26
2022-12-18T10:23:29.802Z,54.57
2022-12-18T10:24:29.786Z,53.06
2022-12-18T10:25:29.823Z,53.81
2022-12-18T10:26:29.781Z,54.75
2022-12-18T10:27:29.750Z,51.77
2022-12-18T10:28:29.869Z,53.64
2022-12-18T10:29:29.791Z,56.34
2022-12-18T10:30:29.736Z,51.76
2022-12-18T10:31:29.752Z,53.41
2022-12-18T10:32:29.801Z,56.07
2022-12-18T10:33:29.674Z,55.50
2022-12-18T10:34:29.680Z,53.52
2022-12-18T10:35:29.693Z,50.13
2022-12-18T10:36:29.666Z,54.32
2022-12-18T10:37:29.648Z,51.22
2022-12-18T10:38:29.631Z,54.26
2022-12-18T10:39:29.651Z,50.92
2022-12-18T10:40:29.616Z,52.31
2022-12-18T10:41:29.747Z,51.13
2022-12-18T10:42:29.623Z,53.56
2022-12-18T10:43:29.564Z,56.36
2022-12-18T10:44:29.677Z,55.28
2022-12-18T10:45:29.581Z,54.41
2022-12-18T10:46:29.659Z,53.34
2022-12-18T10:47:29.559Z,54.21
2022-12-18T10:48:29.560Z,53.42
2022-12-18T10:49:29.520Z,54.40
2022-12-18T10:50:47.163Z,53.46
2022-12-18T10:51:31.881Z,51.17
2022-12-18T10:52:29.494Z,52.28
2022-12-18T10:53:29.473Z,54.40
2022-12-18T10:54:30.455Z,53.48
2022-12-18T10:55:29.475Z,54.71
2022-12-18T10:56:29.457Z,53.76
2022-12-18T10:57:29.422Z,53.04
2022-12-18T10:58:29.432Z,53.75
2022-12-18T10:59:29.435Z,51.29
2022-12-18T11:00:29.510Z,54.06
2022-12-18T11:01:29.508Z,54.64
2022-12-18T11:02:29.601Z,57.00
2022-12-18T11:03:29.479Z,54.75
2022-12-18T11:04:29.389Z,53.61
2022-12-18T11:05:29.378Z,57.08
2022-12-18T11:06:29.343Z,56.75
2022-12-18T11:07:29.315Z,56.88
2022-12-18T11:08:29.306Z,55.70
2022-12-18T11:09:29.329Z,50.93
2022-12-18T11:10:29.459Z,55.23
2022-12-18T11:11:29.278Z,54.30
2022-12-18T11:12:29.295Z,52.36
2022-12-18T11:13:29.255Z,54.85
2022-12-18T11:14:29.269Z,54.75
2022-12-18T11:15:29.244Z,55.97
2022-12-18T11:16:29.406Z,51.04
2022-12-18T11:17:29.194Z,55.42
2022-12-18T11:18:29.201Z,56.71
2022-12-18T11:19:29.226Z,52.94
2022-12-18T11:20:29.192Z,53.75
2022-12-18T11:21:29.197Z,55.19
2022-12-18T11:22:29.173Z,51.51
2022-12-18T11:23:29.175Z,55.80
2022-12-18T11:24:29.161Z,53.99
2022-12-18T11:25:33.195Z,54.95
2022-12-18T11:26:31.141Z,55.56
2022-12-18T11:27:29.094Z,55.32
2022-12-18T11:28:29.155Z,55.91
2022-12-18T11:29:29.118Z,55.46
2022-12-18T11:30:29.088Z,52.90
2022-12-18T11:31:29.247Z,54.79
2022-12-18T11:32:29.155Z,53.27
2022-12-18T11:33:29.079Z,56.58
2022-12-18T11:34:30.173Z,54.14
2022-12-18T11:35:30.048Z,54.98
2022-12-18T11:36:29.013Z,54.27
2022-12-18T11:37:29.023Z,52.73
2022-12-18T11:38:29.005Z,53.72
2022-12-18T11:39:28.971Z,51.53
2022-12-18T11:40:28.998Z,52.33
2022-12-18T11:41:29.005Z,57.12
2022-12-18T11:42:28.964Z,57.53
2022-12-18T11:43:28.930Z,56.98
2022-12-18T11:44:28.960Z,56.85
2022-12-18T11:45:28.907Z,52.67
2022-12-18T11:46:28.964Z,52.61
2022-12-18T11:47:28.964Z,53.46
2022-12-18T11:48:28.972Z,52.99
2022-12-18T11:49:28.858Z,51.56
2022-12-18T11:50:29.878Z,52.86
2022-12-18T11:51:28.883Z,55.43
2022-12-18T11:52:28.828Z,55.87
2022-12-18T11:53:28.858Z,54.11
2022-12-18T11:54:28.867Z,55.92
2022-12-18T11:55:28.795Z,53.90
2022-12-18T11:56:28.813Z,53.11
2022-12-18T11:57:28.821Z,56.62
2022-12-18T11:58:31.534Z,53.54
2022-12-18T11:59:29.757Z,54.38
2022-12-18T12:00:28.798Z,52.56
2022-12-18T12:01:28.809Z,54.43
2022-12-18T12:02:28.931Z,54.03
2022-12-18T12:03:28.713Z,53.97
2022-12-18T12:04:34.729Z,59.10
2022-12-18T12:05:29.815Z,51.07
2022-12-18T12:06:28.734Z,53.09
2022-12-18T12:07:28.672Z,51.68
2022-12-18T12:08:28.716Z,55.41
2022-12-18T12:09:28.682Z,54.06
2022-12-18T12:10:28.665Z,56.27
2022-12-18T12:11:28.685Z,53.06
2022-12-18T12:12:28.652Z,53.16
2022-12-18T12:13:28.621Z,53.86
2022-12-18T12:14:28.640Z,56.46
2022-12-18T12:15:28.708Z,57.24
2022-12-18T12:16:28.626Z,52.25
2022-12-18T12:17:28.611Z,54.23
2022-12-18T12:18:28.610Z,53.58
2022-12-18T12:19:28.578Z,56.49
2022-12-18T12:20:31.487Z,53.91
2022-12-18T12:21:29.655Z,52.86
2022-12-18T12:22:28.593Z,51.89
2022-12-18T12:23:28.558Z,59.56
2022-12-18T12:24:28.543Z,54.90
2022-12-18T12:25:28.497Z,51.51
2022-12-18T12:26:28.497Z,54.41
2022-12-18T12:27:28.503Z,51.90
2022-12-18T12:28:28.496Z,55.15
2022-12-18T12:29:28.443Z,54.14
2022-12-18T12:30:28.485Z,53.69
2022-12-18T12:31:28.490Z,51.21
2022-12-18T12:32:28.446Z,58.52
2022-12-18T12:33:28.416Z,54.82
2022-12-18T12:34:28.440Z,52.58
2022-12-18T12:35:28.418Z,55.55
2022-12-18T12:36:28.391Z,56.57
2022-12-18T12:37:28.465Z,52.13
2022-12-18T12:38:28.379Z,54.27
2022-12-18T12:39:28.378Z,52.63
2022-12-18T12:41:00.529Z,54.80
2022-12-18T12:41:30.376Z,52.72
2022-12-18T12:42:28.342Z,53.57
2022-12-18T12:43:28.308Z,55.23
2022-12-18T12:44:28.313Z,52.80
2022-12-18T12:45:28.344Z,54.26
2022-12-18T12:46:28.284Z,56.82
2022-12-18T12:47:28.251Z,57.41
2022-12-18T12:48:28.296Z,52.65
2022-12-18T12:49:28.232Z,53.31
2022-12-18T12:50:28.266Z,56.75
2022-12-18T12:51:28.246Z,53.95
2022-12-18T12:52:28.226Z,56.17